createdAt,value
2024-03-02T00:01:38.174Z,13.22
2024-03-02T00:04:08.226Z,13.22
2024-03-02T00:06:36.599Z,13.24
2024-03-02T00:09:04.873Z,13.24
2024-03-02T00:11:37.252Z,13.26
2024-03-02T00:14:05.520Z,13.28
2024-03-02T00:16:33.996Z,13.31
2024-03-02T00:19:07.248Z,13.32
2024-03-02T00:21:36.180Z,13.33
2024-03-02T00:24:35.292Z,13.34
2024-03-02T00:27:05.398Z,13.34
2024-03-02T00:29:33.569Z,13.34
2024-03-02T00:32:02.467Z,13.33
2024-03-02T00:34:30.637Z,13.33
2024-03-02T00:37:01.292Z,13.33
2024-03-02T00:39:30.361Z,13.35
2024-03-02T00:41:58.524Z,13.36
2024-03-02T00:44:35.510Z,13.35
2024-03-02T00:47:04.390Z,13.34
2024-03-02T00:49:32.569Z,13.36
2024-03-02T00:52:00.796Z,13.39
2024-03-02T00:54:30.282Z,13.39
2024-03-02T00:56:58.621Z,13.41
2024-03-02T00:59:28.427Z,13.40
2024-03-02T01:01:56.635Z,13.41
2024-03-02T01:04:26.212Z,13.42
2024-03-02T01:06:54.541Z,13.40
2024-03-02T01:09:22.785Z,13.40
2024-03-02T01:11:51.141Z,13.40
2024-03-02T01:14:19.320Z,13.38
2024-03-02T01:16:47.486Z,13.37
2024-03-02T01:19:16.358Z,13.36
2024-03-02T01:21:44.798Z,13.37
2024-03-02T01:24:14.765Z,13.37
2024-03-02T01:26:43.046Z,13.36
2024-03-02T01:29:11.120Z,13.37
2024-03-02T01:31:41.124Z,13.37
2024-03-02T01:34:09.838Z,13.38
2024-03-02T01:36:38.018Z,13.37
2024-03-02T01:39:10.267Z,13.37
2024-03-02T01:41:38.552Z,13.40
2024-03-02T01:44:06.921Z,13.41
2024-03-02T01:46:36.237Z,13.40
2024-03-02T01:49:04.430Z,13.38
2024-03-02T01:51:33.096Z,13.37
2024-03-02T01:54:01.253Z,13.36
2024-03-02T01:56:29.405Z,13.35
2024-03-02T01:58:57.475Z,13.34
2024-03-02T02:01:25.590Z,13.36
2024-03-02T02:03:53.872Z,13.36
2024-03-02T02:06:22.978Z,13.37
2024-03-02T02:08:51.189Z,13.37
2024-03-02T02:11:19.476Z,13.36
2024-03-02T02:13:47.639Z,13.34
2024-03-02T02:16:15.826Z,13.33
2024-03-02T02:18:44.348Z,13.32
2024-03-02T02:21:12.566Z,13.34
2024-03-02T02:23:40.836Z,13.35
2024-03-02T02:26:09.022Z,13.36
2024-03-02T02:28:37.412Z,13.37
2024-03-02T02:31:05.601Z,13.39
2024-03-02T02:33:33.986Z,13.42
2024-03-02T02:36:02.316Z,13.44
2024-03-02T02:38:30.616Z,13.45
2024-03-02T02:40:59.219Z,13.44
2024-03-02T02:43:27.445Z,13.43
2024-03-02T02:45:55.918Z,13.42
2024-03-02T02:48:24.269Z,13.41
2024-03-02T02:50:52.577Z,13.41
2024-03-02T02:53:20.653Z,13.41
2024-03-02T02:55:48.833Z,13.41
2024-03-02T02:58:17.197Z,13.42
2024-03-02T03:00:45.520Z,13.41
2024-03-02T03:03:13.752Z,13.39
2024-03-02T03:05:41.949Z,13.38
2024-03-02T03:08:10.154Z,13.39
2024-03-02T03:10:38.401Z,13.40
2024-03-02T03:13:09.526Z,13.37
2024-03-02T03:15:38.039Z,13.36
2024-03-02T03:18:06.560Z,13.34
2024-03-02T03:20:35.153Z,13.32
2024-03-02T03:23:05.149Z,13.32
2024-03-02T03:25:33.239Z,13.29
2024-03-02T03:28:02.609Z,13.27
2024-03-02T03:30:30.906Z,13.25
2024-03-02T03:32:59.089Z,13.23
2024-03-02T03:35:27.259Z,13.20
2024-03-02T03:37:55.839Z,13.19
2024-03-02T03:40:23.914Z,13.17
2024-03-02T03:42:52.336Z,13.17
2024-03-02T03:45:21.535Z,13.18
2024-03-02T03:47:49.892Z,13.17
2024-03-02T03:50:18.137Z,13.17
2024-03-02T03:52:46.207Z,13.17
2024-03-02T03:55:15.107Z,13.19
2024-03-02T03:57:43.284Z,13.17
2024-03-02T04:00:12.661Z,13.16
2024-03-02T04:02:41.052Z,13.16
2024-03-02T04:05:12.625Z,13.16
2024-03-02T04:07:42.115Z,13.17
2024-03-02T04:10:11.673Z,13.20
2024-03-02T04:12:40.598Z,13.21
2024-03-02T04:15:09.738Z,13.22
2024-03-02T04:17:38.485Z,13.23
2024-03-02T04:20:08.054Z,13.25
2024-03-02T04:22:37.203Z,13.25
2024-03-02T04:25:09.068Z,13.23
2024-03-02T04:27:37.625Z,13.22
2024-03-02T04:30:07.079Z,13.21
2024-03-02T04:32:35.513Z,13.20
2024-03-02T04:35:03.788Z,13.19
2024-03-02T04:37:34.582Z,13.18
2024-03-02T04:40:02.860Z,13.17
2024-03-02T04:42:31.300Z,13.14
2024-03-02T04:44:59.446Z,13.12
2024-03-02T04:47:27.625Z,13.12
2024-03-02T04:49:55.990Z,13.11
2024-03-02T04:52:24.162Z,13.12
2024-03-02T04:55:11.280Z,13.10
2024-03-02T04:57:39.513Z,13.07
2024-03-02T05:00:10.145Z,13.06
2024-03-02T05:02:38.472Z,13.03
2024-03-02T05:05:07.445Z,13.03
2024-03-02T05:07:36.031Z,13.02
2024-03-02T05:10:04.713Z,13.00
2024-03-02T05:12:45.165Z,12.99
2024-03-02T05:15:15.132Z,12.96
2024-03-02T05:17:46.567Z,12.94
2024-03-02T05:20:15.131Z,12.93
2024-03-02T05:22:43.390Z,12.91
2024-03-02T05:25:12.145Z,12.91
2024-03-02T05:27:41.057Z,12.90
2024-03-02T05:30:10.108Z,12.90
2024-03-02T05:32:38.776Z,12.89
2024-03-02T05:35:07.737Z,12.89
2024-03-02T05:37:35.921Z,12.88
2024-03-02T05:40:04.710Z,12.86
2024-03-02T05:42:32.982Z,12.82
2024-03-02T05:45:01.177Z,12.76
2024-03-02T05:47:29.534Z,12.70
2024-03-02T05:49:57.999Z,12.67
2024-03-02T05:52:26.175Z,12.64
2024-03-02T05:54:54.600Z,12.62
2024-03-02T05:57:41.834Z,12.62
2024-03-02T06:00:10.455Z,12.62
2024-03-02T06:02:44.678Z,12.62
2024-03-02T06:05:12.948Z,12.63
2024-03-02T06:07:41.302Z,12.67
2024-03-02T06:10:13.888Z,12.69
2024-03-02T06:12:42.986Z,12.73
2024-03-02T06:15:12.329Z,12.75
2024-03-02T06:17:40.840Z,12.78
2024-03-02T06:20:10.034Z,12.80
2024-03-02T06:22:38.581Z,12.81
2024-03-02T06:25:07.408Z,12.83
2024-03-02T06:27:35.981Z,12.87
2024-03-02T06:30:05.479Z,12.88
2024-03-02T06:32:34.182Z,12.84
2024-03-02T06:35:02.742Z,12.84
2024-03-02T06:37:31.035Z,12.88
2024-03-02T06:39:59.322Z,12.94
2024-03-02T06:42:27.778Z,12.99
2024-03-02T06:44:55.923Z,13.02
2024-03-02T06:47:24.197Z,13.04
2024-03-02T06:49:52.681Z,13.07
2024-03-02T06:52:24.896Z,13.10
2024-03-02T06:54:53.684Z,13.13
2024-03-02T06:57:22.411Z,13.16
2024-03-02T06:59:52.746Z,13.19
2024-03-02T07:02:21.646Z,13.22
2024-03-02T07:04:50.165Z,13.27
2024-03-02T07:07:18.773Z,13.32
2024-03-02T07:09:47.186Z,13.37
2024-03-02T07:12:15.638Z,13.42
2024-03-02T07:15:12.881Z,13.46
2024-03-02T07:17:41.249Z,13.51
2024-03-02T07:20:10.264Z,13.55
2024-03-02T07:22:41.079Z,13.59
2024-03-02T07:26:54.596Z,13.66
2024-03-02T07:27:58.862Z,13.74
2024-03-02T07:30:27.266Z,13.80
2024-03-02T07:32:55.542Z,13.85
2024-03-02T07:35:27.964Z,13.91
2024-03-02T07:37:56.854Z,13.95
2024-03-02T07:40:25.525Z,14.01
2024-03-02T07:42:53.820Z,14.06
2024-03-02T07:45:22.251Z,14.13
2024-03-02T07:47:51.376Z,14.22
2024-03-02T07:50:19.769Z,14.27
2024-03-02T07:52:47.852Z,14.34
2024-03-02T07:55:16.036Z,14.42
2024-03-02T07:57:44.399Z,14.51
2024-03-02T08:00:13.169Z,14.61
2024-03-02T08:02:41.643Z,14.71
2024-03-02T08:05:10.326Z,14.78
2024-03-02T08:07:38.806Z,14.85
2024-03-02T08:10:07.572Z,14.96
2024-03-02T08:12:35.886Z,15.05
2024-03-02T08:15:05.343Z,15.12
2024-03-02T08:17:36.013Z,15.21
2024-03-02T08:20:07.123Z,15.29
2024-03-02T08:22:35.209Z,15.38
2024-03-02T08:25:03.747Z,15.47
2024-03-02T08:27:33.710Z,15.53
2024-03-02T08:30:02.136Z,15.59
2024-03-02T08:32:30.411Z,15.67
2024-03-02T08:34:58.632Z,15.75
2024-03-02T08:37:26.701Z,15.85
2024-03-02T08:39:55.037Z,15.95
2024-03-02T08:42:23.788Z,16.03
2024-03-02T08:44:52.046Z,16.13
2024-03-02T08:47:20.210Z,16.18
2024-03-02T08:49:48.281Z,16.18
2024-03-02T08:52:16.356Z,16.19
2024-03-02T08:54:44.440Z,16.23
2024-03-02T08:57:12.701Z,16.32
2024-03-02T08:59:41.078Z,16.39
2024-03-02T09:02:09.247Z,16.45
2024-03-02T09:04:37.419Z,16.50
2024-03-02T09:07:05.680Z,16.57
2024-03-02T09:09:34.014Z,16.64
2024-03-02T09:12:02.396Z,16.77
2024-03-02T09:14:30.621Z,16.90
2024-03-02T09:16:58.912Z,16.93
2024-03-02T09:19:27.173Z,16.66
2024-03-02T09:21:56.946Z,16.42
2024-03-02T09:24:25.869Z,16.20
2024-03-02T09:26:54.062Z,15.99
2024-03-02T09:29:22.382Z,15.85
2024-03-02T09:31:52.127Z,15.71
2024-03-02T09:34:20.435Z,15.59
2024-03-02T09:36:48.684Z,15.52
2024-03-02T09:39:17.159Z,15.74
2024-03-02T09:41:45.533Z,16.02
2024-03-02T09:44:13.913Z,16.24
2024-03-02T09:46:45.326Z,16.45
2024-03-02T09:49:14.149Z,16.64
2024-03-02T09:51:48.540Z,16.74
2024-03-02T09:54:22.232Z,16.58
2024-03-02T09:56:52.541Z,16.41
2024-03-02T09:59:22.028Z,16.31
2024-03-02T10:02:01.268Z,16.26
2024-03-02T10:04:32.307Z,16.21
2024-03-02T10:07:20.010Z,16.21
2024-03-02T10:09:53.326Z,16.23
2024-03-02T10:12:22.313Z,16.25
2024-03-02T10:14:52.929Z,16.29
2024-03-02T10:17:21.090Z,16.32
2024-03-02T10:19:49.258Z,16.35
2024-03-02T10:22:17.436Z,16.37
2024-03-02T10:24:47.058Z,16.39
2024-03-02T10:27:24.160Z,16.42
2024-03-02T10:29:52.491Z,16.50
2024-03-02T10:32:23.946Z,16.58
2024-03-02T10:34:52.127Z,16.62
2024-03-02T10:37:23.069Z,16.68
2024-03-02T10:39:51.360Z,16.74
2024-03-02T10:42:20.691Z,16.83
2024-03-02T10:44:50.040Z,16.89
2024-03-02T10:47:20.761Z,16.96
2024-03-02T10:49:53.056Z,17.01
2024-03-02T10:52:21.199Z,17.02
2024-03-02T10:54:49.717Z,17.01
2024-03-02T10:57:18.471Z,16.99
2024-03-02T10:59:58.761Z,16.99
2024-03-02T11:02:29.043Z,16.99
2024-03-02T11:04:57.562Z,16.99
2024-03-02T11:07:26.532Z,17.02
2024-03-02T11:10:10.205Z,17.04
2024-03-02T11:13:03.411Z,17.04
2024-03-02T11:15:31.931Z,17.00
2024-03-02T11:18:00.498Z,16.99
2024-03-02T11:20:30.162Z,17.01
2024-03-02T11:22:58.256Z,17.05
2024-03-02T11:25:29.614Z,17.03
2024-03-02T11:27:57.754Z,17.03
2024-03-02T11:30:36.121Z,17.02
2024-03-02T11:33:13.397Z,17.00
2024-03-02T11:35:49.661Z,16.94
2024-03-02T11:38:19.745Z,16.87
2024-03-02T11:40:48.175Z,16.83
2024-03-02T11:43:16.713Z,16.83
2024-03-02T11:45:45.848Z,16.84
2024-03-02T11:48:17.765Z,16.87
2024-03-02T11:50:51.839Z,16.92
2024-03-02T11:53:21.797Z,16.96
2024-03-02T11:55:50.770Z,16.99
2024-03-02T11:58:25.090Z,17.03
2024-03-02T12:00:54.077Z,17.05
2024-03-02T12:03:27.267Z,17.06
2024-03-02T12:05:56.731Z,17.11
2024-03-02T12:08:25.897Z,17.15
2024-03-02T12:11:02.712Z,17.21
2024-03-02T12:13:32.481Z,17.31
2024-03-02T12:16:01.144Z,17.39
2024-03-02T12:18:29.773Z,17.50
2024-03-02T12:20:59.999Z,17.61
2024-03-02T12:23:28.879Z,17.67
2024-03-02T12:25:57.833Z,17.72
2024-03-02T12:28:26.416Z,17.82
2024-03-02T12:30:54.903Z,17.91
2024-03-02T12:33:24.301Z,17.95
2024-03-02T12:35:52.607Z,17.98
2024-03-02T12:38:21.175Z,18.05
2024-03-02T12:40:50.982Z,18.15
2024-03-02T12:43:19.539Z,18.18
2024-03-02T12:45:48.194Z,18.19
2024-03-02T12:48:16.611Z,18.17
2024-03-02T12:50:45.664Z,18.14
2024-03-02T12:53:17.983Z,18.09
2024-03-02T12:55:46.461Z,18.03
2024-03-02T12:58:20.009Z,17.97
2024-03-02T13:00:48.724Z,17.96
2024-03-02T13:03:21.162Z,17.90
2024-03-02T13:05:51.272Z,17.80
2024-03-02T13:08:19.326Z,17.69
2024-03-02T13:10:47.824Z,17.61
2024-03-02T13:13:16.265Z,17.53
2024-03-02T13:15:46.441Z,17.44
2024-03-02T13:18:14.900Z,17.37
2024-03-02T13:20:43.124Z,17.32
2024-03-02T13:23:11.605Z,17.29
2024-03-02T13:25:39.778Z,17.28
2024-03-02T13:28:08.844Z,17.23
2024-03-02T13:30:37.268Z,17.15
2024-03-02T13:33:06.042Z,17.07
2024-03-02T13:35:34.212Z,16.99
2024-03-02T13:38:02.587Z,16.91
2024-03-02T13:40:32.090Z,16.82
2024-03-02T13:43:00.290Z,16.71
2024-03-02T13:45:29.289Z,16.62
2024-03-02T13:47:57.636Z,16.50
2024-03-02T13:50:25.802Z,16.40
2024-03-02T13:52:53.880Z,16.33
2024-03-02T13:55:22.043Z,16.27
2024-03-02T13:57:51.453Z,16.19
2024-03-02T14:00:20.336Z,16.11
2024-03-02T14:02:51.071Z,16.03
2024-03-02T14:05:20.668Z,15.92
2024-03-02T14:07:48.745Z,15.87
2024-03-02T14:10:17.267Z,15.85
2024-03-02T14:12:45.535Z,15.83
2024-03-02T14:15:13.772Z,15.82
2024-03-02T14:17:42.070Z,15.82
2024-03-02T14:20:14.738Z,15.81
2024-03-02T14:22:42.898Z,15.80
2024-03-02T14:25:11.302Z,15.78
2024-03-02T14:30:12.846Z,15.68
2024-03-02T14:32:41.037Z,15.62
2024-03-02T14:35:12.819Z,15.57
2024-03-02T14:37:41.151Z,15.52
2024-03-02T14:40:11.092Z,15.46
2024-03-02T14:42:39.472Z,15.38
2024-03-02T14:45:07.816Z,15.35
2024-03-02T14:47:36.785Z,15.60
2024-03-02T14:50:07.552Z,15.89
2024-03-02T14:52:35.814Z,16.11
2024-03-02T14:55:05.540Z,16.27
2024-03-02T14:57:33.725Z,16.40
2024-03-02T15:00:01.971Z,16.52
2024-03-02T15:02:30.357Z,16.62
2024-03-02T15:04:58.734Z,16.68
2024-03-02T15:07:27.214Z,16.68
2024-03-02T15:09:56.340Z,16.41
2024-03-02T15:12:24.969Z,16.07
2024-03-02T15:14:53.160Z,15.79
2024-03-02T15:17:21.435Z,15.57
2024-03-02T15:19:49.616Z,15.37
2024-03-02T15:22:18.399Z,15.25
2024-03-02T15:24:46.602Z,15.41
2024-03-02T15:27:14.747Z,15.61
2024-03-02T15:29:42.921Z,15.76
2024-03-02T15:32:11.286Z,15.87
2024-03-02T15:34:39.638Z,15.96
2024-03-02T15:37:07.943Z,16.04
2024-03-02T15:39:36.286Z,16.10
2024-03-02T15:42:06.160Z,16.14
2024-03-02T15:44:34.414Z,16.20
2024-03-02T15:47:02.881Z,16.23
2024-03-02T15:49:33.305Z,16.25
2024-03-02T15:52:04.873Z,16.27
2024-03-02T15:54:33.256Z,16.28
2024-03-02T15:57:01.613Z,16.28
2024-03-02T15:59:29.786Z,16.30
2024-03-02T16:01:59.805Z,16.32
2024-03-02T16:04:28.082Z,16.31
2024-03-02T16:06:56.385Z,16.28
2024-03-02T16:09:24.672Z,16.26
2024-03-02T16:11:53.415Z,16.26
2024-03-02T16:14:21.720Z,16.26
2024-03-02T16:16:49.860Z,16.26
2024-03-02T16:19:25.764Z,16.25
2024-03-02T16:22:01.146Z,16.23
2024-03-02T16:24:29.593Z,16.24
2024-03-02T16:26:58.326Z,16.25
2024-03-02T16:29:26.499Z,16.23
2024-03-02T16:31:54.673Z,16.20
2024-03-02T16:34:22.978Z,16.16
2024-03-02T16:36:51.273Z,16.12
2024-03-02T16:39:19.591Z,16.06
2024-03-02T16:41:48.438Z,16.03
2024-03-02T16:44:16.964Z,15.98
2024-03-02T16:46:46.688Z,15.94
2024-03-02T16:49:15.083Z,15.88
2024-03-02T16:51:44.346Z,15.83
2024-03-02T16:54:12.619Z,15.78
2024-03-02T16:56:44.402Z,15.72
2024-03-02T16:59:12.666Z,15.67
2024-03-02T17:01:41.177Z,15.61
2024-03-02T17:04:09.658Z,15.57
2024-03-02T17:06:38.042Z,15.53
2024-03-02T17:09:06.777Z,15.49
2024-03-02T17:11:36.537Z,15.44
2024-03-02T17:14:05.081Z,15.37
2024-03-02T17:16:33.138Z,15.30
2024-03-02T17:19:01.831Z,15.25
2024-03-02T17:21:30.514Z,15.20
2024-03-02T17:23:59.663Z,15.16
2024-03-02T17:26:27.982Z,15.12
2024-03-02T17:28:56.264Z,15.08
2024-03-02T17:31:24.428Z,15.04
2024-03-02T17:33:52.721Z,15.02
2024-03-02T17:36:20.975Z,14.99
2024-03-02T17:38:49.263Z,14.97
2024-03-02T17:41:17.625Z,14.95
2024-03-02T17:43:45.900Z,14.94
2024-03-02T17:46:14.158Z,14.92
2024-03-02T17:48:42.891Z,14.92
2024-03-02T17:51:11.336Z,14.92
2024-03-02T17:53:39.620Z,14.93
2024-03-02T17:56:10.964Z,14.93
2024-03-02T17:58:39.574Z,14.93
2024-03-02T18:01:07.885Z,14.93
2024-03-02T18:03:36.495Z,14.95
2024-03-02T18:06:05.870Z,14.95
2024-03-02T18:08:36.056Z,14.95
2024-03-02T18:11:08.018Z,14.96
2024-03-02T18:13:36.384Z,14.95
2024-03-02T18:16:06.035Z,14.91
2024-03-02T18:18:34.326Z,14.94
2024-03-02T18:21:03.859Z,14.94
2024-03-02T18:23:32.545Z,14.94
2024-03-02T18:26:01.133Z,14.93
2024-03-02T18:28:29.354Z,14.93
2024-03-02T18:30:59.757Z,14.93
2024-03-02T18:33:28.052Z,14.91
2024-03-02T18:35:56.774Z,14.85
2024-03-02T18:38:24.952Z,14.86
2024-03-02T18:40:53.118Z,14.86
2024-03-02T18:43:21.498Z,14.86
2024-03-02T18:45:49.822Z,14.84
2024-03-02T18:48:18.092Z,14.82
2024-03-02T18:50:46.318Z,14.81
2024-03-02T18:53:14.804Z,14.80
2024-03-02T18:55:42.972Z,14.78
2024-03-02T18:58:11.073Z,14.77
2024-03-02T19:00:39.767Z,14.76
2024-03-02T19:03:11.002Z,14.76
2024-03-02T19:05:39.765Z,14.75
2024-03-02T19:08:09.354Z,14.73
2024-03-02T19:10:37.659Z,14.71
2024-03-02T19:13:07.310Z,14.67
2024-03-02T19:15:35.681Z,14.64
2024-03-02T19:18:04.612Z,14.61
2024-03-02T19:20:33.099Z,14.60
2024-03-02T19:23:01.711Z,14.57
2024-03-02T19:25:29.974Z,14.55
2024-03-02T19:27:58.465Z,14.52
2024-03-02T19:30:27.218Z,14.51
2024-03-02T19:32:55.645Z,14.50
2024-03-02T19:35:23.875Z,14.49
2024-03-02T19:37:53.272Z,14.48
2024-03-02T19:40:21.442Z,14.46
2024-03-02T19:42:49.674Z,14.43
2024-03-02T19:45:18.046Z,14.41
2024-03-02T19:47:46.170Z,14.39
2024-03-02T19:50:15.531Z,14.38
2024-03-02T19:52:43.848Z,14.39
2024-03-02T19:55:14.172Z,14.40
2024-03-02T19:57:46.115Z,14.41
2024-03-02T20:00:15.807Z,14.42
2024-03-02T20:02:44.030Z,14.43
2024-03-02T20:05:13.438Z,14.43
2024-03-02T20:07:42.749Z,14.44
2024-03-02T20:10:12.624Z,14.45
2024-03-02T20:12:41.101Z,14.44
2024-03-02T20:15:21.068Z,14.44
2024-03-02T20:17:49.374Z,14.43
2024-03-02T20:20:18.011Z,14.42
2024-03-02T20:22:47.205Z,14.41
2024-03-02T20:25:17.110Z,14.37
2024-03-02T20:27:46.479Z,14.34
2024-03-02T20:30:15.119Z,14.31
2024-03-02T20:32:43.836Z,14.28
2024-03-02T20:35:12.786Z,14.27
2024-03-02T20:37:41.369Z,14.27
2024-03-02T20:40:10.384Z,14.26
2024-03-02T20:42:39.316Z,14.25
2024-03-02T20:45:08.661Z,14.23
2024-03-02T20:47:36.830Z,14.20
2024-03-02T20:50:05.637Z,14.16
2024-03-02T20:52:33.987Z,14.13
2024-03-02T20:55:02.134Z,14.09
2024-03-02T20:57:30.534Z,14.03
2024-03-02T20:59:58.816Z,13.99
2024-03-02T21:02:27.551Z,13.95
2024-03-02T21:04:55.888Z,13.90
2024-03-02T21:07:24.072Z,13.86
2024-03-02T21:09:53.978Z,13.83
2024-03-02T21:12:22.344Z,13.83
2024-03-02T21:14:50.608Z,13.82
2024-03-02T21:17:18.775Z,13.83
2024-03-02T21:19:48.487Z,13.84
2024-03-02T21:22:16.988Z,13.84
2024-03-02T21:24:47.348Z,13.83
2024-03-02T21:27:18.519Z,13.83
2024-03-02T21:29:48.303Z,13.82
2024-03-02T21:32:16.628Z,13.82
2024-03-02T21:34:44.800Z,13.82
2024-03-02T21:37:13.152Z,13.81
2024-03-02T21:39:47.022Z,13.80
2024-03-02T21:42:15.965Z,13.81
2024-03-02T21:44:44.448Z,13.82
2024-03-02T21:47:13.852Z,13.83
2024-03-02T21:49:42.027Z,13.84
2024-03-02T21:52:10.640Z,13.84
2024-03-02T21:54:38.899Z,13.85
2024-03-02T21:57:10.637Z,13.87
2024-03-02T21:59:40.547Z,13.88
2024-03-02T22:02:08.902Z,13.89
2024-03-02T22:04:37.511Z,13.87
2024-03-02T22:07:05.808Z,13.86
2024-03-02T22:09:35.562Z,13.85
2024-03-02T22:12:04.018Z,13.82
2024-03-02T22:14:32.248Z,13.77
2024-03-02T22:17:00.549Z,13.68
2024-03-02T22:19:28.911Z,13.61
2024-03-02T22:21:57.204Z,13.55
2024-03-02T22:24:26.265Z,13.48
2024-03-02T22:26:54.451Z,13.41
2024-03-02T22:29:22.612Z,13.36
2024-03-02T22:31:50.992Z,13.33
2024-03-02T22:34:19.400Z,13.30
2024-03-02T22:36:47.655Z,13.27
2024-03-02T22:39:15.814Z,13.25
2024-03-02T22:41:44.396Z,13.21
2024-03-02T22:44:12.676Z,13.18
2024-03-02T22:46:40.841Z,13.15
2024-03-02T22:49:09.038Z,13.12
2024-03-02T22:51:37.256Z,13.10
2024-03-02T22:54:05.469Z,13.06
2024-03-02T22:56:33.745Z,13.03
2024-03-02T22:59:02.339Z,13.01
2024-03-02T23:01:30.630Z,12.98
2024-03-02T23:03:58.787Z,12.96
2024-03-02T23:06:27.866Z,12.93
2024-03-02T23:08:56.034Z,12.89
2024-03-02T23:11:24.439Z,12.86
2024-03-02T23:13:52.698Z,12.80
2024-03-02T23:16:20.888Z,12.76
2024-03-02T23:18:50.157Z,12.75
2024-03-02T23:21:18.442Z,12.73
2024-03-02T23:23:46.605Z,12.70
2024-03-02T23:26:14.791Z,12.67
2024-03-02T23:28:42.954Z,12.65
2024-03-02T23:31:11.201Z,12.64
2024-03-02T23:33:40.078Z,12.62
2024-03-02T23:36:08.286Z,12.61
2024-03-02T23:38:36.366Z,12.60
2024-03-02T23:41:16.220Z,12.59
2024-03-02T23:43:44.387Z,12.57
2024-03-02T23:46:12.900Z,12.54
2024-03-02T23:48:41.267Z,12.55
2024-03-02T23:51:09.510Z,12.58
2024-03-02T23:53:37.684Z,12.62
2024-03-02T23:56:13.740Z,12.68
2024-03-02T23:58:42.225Z,12.73
